sensor_id;sensor_type;location;lat;lon;timestamp;P1;durP1;ratioP1;P2;durP2;ratioP2
23802;SDS011;12082;51.786;6.018;2023-03-15T00:00:23;19.60;;;18.27;;
23802;SDS011;12082;51.786;6.018;2023-03-15T00:02:49;19.43;;;18.03;;
23802;SDS011;12082;51.786;6.018;2023-03-15T00:05:15;20.37;;;19.00;;
23802;SDS011;12082;51.786;6.018;2023-03-15T00:07:41;19.80;;;18.50;;
23802;SDS011;12082;51.786;6.018;2023-03-15T00:10:07;20.37;;;18.73;;
23802;SDS011;12082;51.786;6.018;2023-03-15T00:12:33;20.43;;;19.03;;
23802;SDS011;12082;51.786;6.018;2023-03-15T00:14:59;22.20;;;20.23;;
23802;SDS011;12082;51.786;6.018;2023-03-15T00:17:25;21.17;;;19.57;;
23802;SDS011;12082;51.786;6.018;2023-03-15T00:19:51;22.10;;;20.47;;
23802;SDS011;12082;51.786;6.018;2023-03-15T00:22:17;22.00;;;20.50;;
23802;SDS011;12082;51.786;6.018;2023-03-15T00:24:43;23.53;;;21.70;;
23802;SDS011;12082;51.786;6.018;2023-03-15T00:27:09;21.97;;;20.47;;
23802;SDS011;12082;51.786;6.018;2023-03-15T00:29:35;23.63;;;22.03;;
23802;SDS011;12082;51.786;6.018;2023-03-15T00:32:01;24.00;;;22.30;;
23802;SDS011;12082;51.786;6.018;2023-03-15T00:34:27;23.47;;;21.87;;
23802;SDS011;12082;51.786;6.018;2023-03-15T00:36:53;23.80;;;21.93;;
23802;SDS011;12082;51.786;6.018;2023-03-15T00:39:19;24.57;;;22.47;;
23802;SDS011;12082;51.786;6.018;2023-03-15T00:41:45;23.93;;;22.23;;
23802;SDS011;12082;51.786;6.018;2023-03-15T00:44:11;24.77;;;22.97;;
23802;SDS011;12082;51.786;6.018;2023-03-15T00:46:38;24.03;;;22.33;;
23802;SDS011;12082;51.786;6.018;2023-03-15T00:49:04;25.03;;;23.43;;
23802;SDS011;12082;51.786;6.018;2023-03-15T00:51:30;23.43;;;21.67;;
23802;SDS011;12082;51.786;6.018;2023-03-15T00:53:57;22.83;;;21.40;;
23802;SDS011;12082;51.786;6.018;2023-03-15T00:56:24;22.13;;;20.67;;
23802;SDS011;12082;51.786;6.018;2023-03-15T00:58:50;21.17;;;19.93;;
23802;SDS011;12082;51.786;6.018;2023-03-15T01:01:21;22.13;;;20.77;;
23802;SDS011;12082;51.786;6.018;2023-03-15T01:03:47;22.10;;;20.70;;
23802;SDS011;12082;51.786;6.018;2023-03-15T01:06:14;22.77;;;21.47;;
23802;SDS011;12082;51.786;6.018;2023-03-15T01:08:41;22.10;;;20.87;;
23802;SDS011;12082;51.786;6.018;2023-03-15T01:11:11;23.27;;;21.87;;
23802;SDS011;12082;51.786;6.018;2023-03-15T01:13:37;22.30;;;21.00;;
23802;SDS011;12082;51.786;6.018;2023-03-15T01:16:03;23.33;;;21.67;;
23802;SDS011;12082;51.786;6.018;2023-03-15T01:18:29;23.07;;;21.47;;
23802;SDS011;12082;51.786;6.018;2023-03-15T01:20:55;22.20;;;20.80;;
23802;SDS011;12082;51.786;6.018;2023-03-15T01:23:21;21.90;;;20.50;;
23802;SDS011;12082;51.786;6.018;2023-03-15T01:25:47;21.43;;;20.13;;
23802;SDS011;12082;51.786;6.018;2023-03-15T01:28:13;21.53;;;20.40;;
23802;SDS011;12082;51.786;6.018;2023-03-15T01:30:39;21.77;;;20.47;;
23802;SDS011;12082;51.786;6.018;2023-03-15T01:33:05;22.03;;;20.70;;
23802;SDS011;12082;51.786;6.018;2023-03-15T01:35:31;21.47;;;20.27;;
23802;SDS011;12082;51.786;6.018;2023-03-15T01:37:57;21.33;;;19.93;;
23802;SDS011;12082;51.786;6.018;2023-03-15T01:40:23;20.53;;;19.17;;
23802;SDS011;12082;51.786;6.018;2023-03-15T01:42:53;19.13;;;18.03;;
23802;SDS011;12082;51.786;6.018;2023-03-15T01:48:20;20.27;;;18.83;;
23802;SDS011;12082;51.786;6.018;2023-03-15T01:50:48;19.53;;;18.33;;
23802;SDS011;12082;51.786;6.018;2023-03-15T01:53:14;20.80;;;19.50;;
23802;SDS011;12082;51.786;6.018;2023-03-15T01:55:40;19.80;;;18.43;;
23802;SDS011;12082;51.786;6.018;2023-03-15T01:58:06;20.40;;;19.00;;
23802;SDS011;12082;51.786;6.018;2023-03-15T02:00:33;20.93;;;19.60;;
23802;SDS011;12082;51.786;6.018;2023-03-15T02:03:04;22.53;;;21.13;;
23802;SDS011;12082;51.786;6.018;2023-03-15T02:05:33;21.80;;;20.37;;
23802;SDS011;12082;51.786;6.018;2023-03-15T02:08:00;23.43;;;21.83;;
23802;SDS011;12082;51.786;6.018;2023-03-15T02:10:29;23.70;;;22.20;;
23802;SDS011;12082;51.786;6.018;2023-03-15T02:12:56;24.43;;;22.83;;
23802;SDS011;12082;51.786;6.018;2023-03-15T02:15:23;24.80;;;23.00;;
23802;SDS011;12082;51.786;6.018;2023-03-15T02:17:49;24.23;;;22.30;;
23802;SDS011;12082;51.786;6.018;2023-03-15T02:20:18;23.83;;;22.20;;
23802;SDS011;12082;51.786;6.018;2023-03-15T02:23:10;23.73;;;22.00;;
23802;SDS011;12082;51.786;6.018;2023-03-15T02:28:22;22.60;;;20.80;;
23802;SDS011;12082;51.786;6.018;2023-03-15T02:30:48;22.70;;;21.10;;
23802;SDS011;12082;51.786;6.018;2023-03-15T02:35:47;21.70;;;20.07;;
23802;SDS011;12082;51.786;6.018;2023-03-15T02:38:13;22.77;;;20.87;;
23802;SDS011;12082;51.786;6.018;2023-03-15T02:40:39;22.10;;;20.80;;
23802;SDS011;12082;51.786;6.018;2023-03-15T02:43:06;22.33;;;20.73;;
23802;SDS011;12082;51.786;6.018;2023-03-15T02:45:33;21.80;;;20.50;;
23802;SDS011;12082;51.786;6.018;2023-03-15T02:48:00;22.10;;;20.80;;
23802;SDS011;12082;51.786;6.018;2023-03-15T02:50:27;21.97;;;20.50;;
23802;SDS011;12082;51.786;6.018;2023-03-15T02:52:53;21.40;;;19.83;;
23802;SDS011;12082;51.786;6.018;2023-03-15T02:55:19;20.67;;;19.57;;
23802;SDS011;12082;51.786;6.018;2023-03-15T02:57:45;21.90;;;20.40;;
23802;SDS011;12082;51.786;6.018;2023-03-15T03:00:11;21.07;;;19.77;;
23802;SDS011;12082;51.786;6.018;2023-03-15T03:02:42;20.50;;;19.10;;
23802;SDS011;12082;51.786;6.018;2023-03-15T03:05:08;20.73;;;19.53;;
23802;SDS011;12082;51.786;6.018;2023-03-15T03:07:34;20.23;;;18.83;;
23802;SDS011;12082;51.786;6.018;2023-03-15T03:10:00;20.93;;;19.43;;
23802;SDS011;12082;51.786;6.018;2023-03-15T03:12:26;21.53;;;19.87;;
23802;SDS011;12082;51.786;6.018;2023-03-15T03:14:53;21.10;;;19.80;;
23802;SDS011;12082;51.786;6.018;2023-03-15T03:17:20;20.20;;;19.00;;
23802;SDS011;12082;51.786;6.018;2023-03-15T03:19:46;20.23;;;18.40;;
23802;SDS011;12082;51.786;6.018;2023-03-15T03:22:12;19.90;;;18.70;;
23802;SDS011;12082;51.786;6.018;2023-03-15T03:24:38;18.60;;;17.60;;
23802;SDS011;12082;51.786;6.018;2023-03-15T03:27:10;18.77;;;17.53;;
23802;SDS011;12082;51.786;6.018;2023-03-15T03:29:38;19.20;;;17.90;;
23802;SDS011;12082;51.786;6.018;2023-03-15T03:32:05;18.50;;;17.30;;
23802;SDS011;12082;51.786;6.018;2023-03-15T03:34:31;19.73;;;18.43;;
23802;SDS011;12082;51.786;6.018;2023-03-15T03:36:57;19.53;;;18.43;;
23802;SDS011;12082;51.786;6.018;2023-03-15T03:39:23;19.87;;;18.10;;
23802;SDS011;12082;51.786;6.018;2023-03-15T03:41:49;20.90;;;19.60;;
23802;SDS011;12082;51.786;6.018;2023-03-15T03:44:15;20.17;;;19.00;;
23802;SDS011;12082;51.786;6.018;2023-03-15T03:46:41;19.77;;;18.67;;
23802;SDS011;12082;51.786;6.018;2023-03-15T03:49:07;20.53;;;19.10;;
23802;SDS011;12082;51.786;6.018;2023-03-15T03:51:33;20.20;;;19.00;;
23802;SDS011;12082;51.786;6.018;2023-03-15T03:53:59;19.97;;;18.67;;
23802;SDS011;12082;51.786;6.018;2023-03-15T03:56:26;18.53;;;17.33;;
23802;SDS011;12082;51.786;6.018;2023-03-15T03:58:52;20.17;;;18.67;;
23802;SDS011;12082;51.786;6.018;2023-03-15T04:01:18;18.10;;;16.80;;
23802;SDS011;12082;51.786;6.018;2023-03-15T04:03:46;18.43;;;17.13;;
23802;SDS011;12082;51.786;6.018;2023-03-15T04:06:12;20.03;;;18.73;;
23802;SDS011;12082;51.786;6.018;2023-03-15T04:08:38;19.60;;;18.30;;
23802;SDS011;12082;51.786;6.018;2023-03-15T04:11:05;19.87;;;18.37;;
23802;SDS011;12082;51.786;6.018;2023-03-15T04:13:31;20.70;;;19.30;;
23802;SDS011;12082;51.786;6.018;2023-03-15T04:15:57;20.70;;;19.23;;
23802;SDS011;12082;51.786;6.018;2023-03-15T04:18:25;20.40;;;19.10;;
23802;SDS011;12082;51.786;6.018;2023-03-15T04:20:51;20.57;;;18.87;;
23802;SDS011;12082;51.786;6.018;2023-03-15T04:23:18;20.27;;;18.80;;
23802;SDS011;12082;51.786;6.018;2023-03-15T04:25:48;19.03;;;17.43;;
23802;SDS011;12082;51.786;6.018;2023-03-15T04:28:14;18.77;;;17.30;;
23802;SDS011;12082;51.786;6.018;2023-03-15T04:30:41;19.80;;;18.30;;
23802;SDS011;12082;51.786;6.018;2023-03-15T04:33:07;21.97;;;20.23;;
23802;SDS011;12082;51.786;6.018;2023-03-15T04:35:35;21.27;;;19.57;;
23802;SDS011;12082;51.786;6.018;2023-03-15T04:38:01;22.37;;;20.47;;
23802;SDS011;12082;51.786;6.018;2023-03-15T04:40:28;21.23;;;19.73;;
23802;SDS011;12082;51.786;6.018;2023-03-15T04:42:59;21.93;;;19.80;;
23802;SDS011;12082;51.786;6.018;2023-03-15T04:45:25;22.07;;;20.27;;
23802;SDS011;12082;51.786;6.018;2023-03-15T04:47:51;22.40;;;20.63;;
23802;SDS011;12082;51.786;6.018;2023-03-15T04:50:18;23.63;;;21.40;;
23802;SDS011;12082;51.786;6.018;2023-03-15T04:52:44;26.83;;;24.20;;
23802;SDS011;12082;51.786;6.018;2023-03-15T04:55:10;23.53;;;21.20;;
23802;SDS011;12082;51.786;6.018;2023-03-15T04:57:37;23.47;;;21.47;;
23802;SDS011;12082;51.786;6.018;2023-03-15T05:00:03;25.17;;;23.00;;
23802;SDS011;12082;51.786;6.018;2023-03-15T05:02:33;25.57;;;22.87;;
23802;SDS011;12082;51.786;6.018;2023-03-15T05:05:00;24.43;;;21.83;;
23802;SDS011;12082;51.786;6.018;2023-03-15T05:07:26;26.43;;;23.80;;
23802;SDS011;12082;51.786;6.018;2023-03-15T05:09:52;26.37;;;23.77;;
23802;SDS011;12082;51.786;6.018;2023-03-15T05:12:18;26.40;;;23.97;;
23802;SDS011;12082;51.786;6.018;2023-03-15T05:14:44;27.00;;;24.30;;
23802;SDS011;12082;51.786;6.018;2023-03-15T05:17:10;25.50;;;23.30;;
23802;SDS011;12082;51.786;6.018;2023-03-15T05:19:35;25.90;;;23.77;;
23802;SDS011;12082;51.786;6.018;2023-03-15T05:22:02;30.87;;;23.67;;
23802;SDS011;12082;51.786;6.018;2023-03-15T05:24:28;24.67;;;22.27;;
23802;SDS011;12082;51.786;6.018;2023-03-15T05:26:55;24.20;;;21.77;;
23802;SDS011;12082;51.786;6.018;2023-03-15T05:29:21;22.60;;;20.43;;
23802;SDS011;12082;51.786;6.018;2023-03-15T05:31:47;23.97;;;21.70;;
23802;SDS011;12082;51.786;6.018;2023-03-15T05:34:14;23.80;;;21.70;;
23802;SDS011;12082;51.786;6.018;2023-03-15T05:36:40;25.33;;;22.93;;
23802;SDS011;12082;51.786;6.018;2023-03-15T05:39:06;26.70;;;24.00;;
23802;SDS011;12082;51.786;6.018;2023-03-15T05:41:32;26.37;;;23.97;;
23802;SDS011;12082;51.786;6.018;2023-03-15T05:43:58;31.33;;;25.10;;
23802;SDS011;12082;51.786;6.018;2023-03-15T05:46:24;26.60;;;24.10;;
23802;SDS011;12082;51.786;6.018;2023-03-15T05:48:50;26.43;;;23.93;;
23802;SDS011;12082;51.786;6.018;2023-03-15T05:51:17;26.03;;;23.60;;
23802;SDS011;12082;51.786;6.018;2023-03-15T05:53:43;25.00;;;22.80;;
23802;SDS011;12082;51.786;6.018;2023-03-15T05:56:09;25.97;;;23.70;;
23802;SDS011;12082;51.786;6.018;2023-03-15T05:58:35;27.13;;;24.63;;
23802;SDS011;12082;51.786;6.018;2023-03-15T06:01:02;25.60;;;23.10;;
23802;SDS011;12082;51.786;6.018;2023-03-15T06:03:28;25.50;;;23.10;;
23802;SDS011;12082;51.786;6.018;2023-03-15T06:05:55;26.03;;;23.33;;
23802;SDS011;12082;51.786;6.018;2023-03-15T06:08:21;24.87;;;22.67;;
23802;SDS011;12082;51.786;6.018;2023-03-15T06:10:47;26.13;;;23.33;;
23802;SDS011;12082;51.786;6.018;2023-03-15T06:13:13;25.57;;;23.13;;
23802;SDS011;12082;51.786;6.018;2023-03-15T06:15:39;26.17;;;23.63;;
23802;SDS011;12082;51.786;6.018;2023-03-15T06:18:05;31.43;;;24.47;;
23802;SDS011;12082;51.786;6.018;2023-03-15T06:20:32;25.87;;;23.17;;
23802;SDS011;12082;51.786;6.018;2023-03-15T06:22:58;24.67;;;22.50;;
23802;SDS011;12082;51.786;6.018;2023-03-15T06:25:23;28.03;;;23.20;;
23802;SDS011;12082;51.786;6.018;2023-03-15T06:27:49;26.30;;;22.73;;
23802;SDS011;12082;51.786;6.018;2023-03-15T06:30:16;28.80;;;22.93;;
23802;SDS011;12082;51.786;6.018;2023-03-15T06:32:42;29.97;;;24.23;;
23802;SDS011;12082;51.786;6.018;2023-03-15T06:35:08;26.10;;;22.87;;
23802;SDS011;12082;51.786;6.018;2023-03-15T06:37:34;29.17;;;23.67;;
23802;SDS011;12082;51.786;6.018;2023-03-15T06:40:07;26.93;;;24.13;;
23802;SDS011;12082;51.786;6.018;2023-03-15T06:42:34;26.87;;;24.17;;
23802;SDS011;12082;51.786;6.018;2023-03-15T06:45:00;27.67;;;24.77;;
23802;SDS011;12082;51.786;6.018;2023-03-15T06:47:27;37.20;;;25.07;;
23802;SDS011;12082;51.786;6.018;2023-03-15T06:49:53;30.90;;;25.37;;
23802;SDS011;12082;51.786;6.018;2023-03-15T06:52:19;28.73;;;25.70;;
23802;SDS011;12082;51.786;6.018;2023-03-15T06:54:45;29.33;;;26.03;;
23802;SDS011;12082;51.786;6.018;2023-03-15T06:57:11;29.50;;;26.40;;
23802;SDS011;12082;51.786;6.018;2023-03-15T06:59:37;35.27;;;28.17;;
23802;SDS011;12082;51.786;6.018;2023-03-15T07:02:03;31.97;;;28.40;;
23802;SDS011;12082;51.786;6.018;2023-03-15T07:04:29;33.43;;;28.63;;
23802;SDS011;12082;51.786;6.018;2023-03-15T07:06:55;34.83;;;28.57;;
23802;SDS011;12082;51.786;6.018;2023-03-15T07:09:21;34.57;;;29.23;;
23802;SDS011;12082;51.786;6.018;2023-03-15T07:11:47;33.37;;;29.60;;
23802;SDS011;12082;51.786;6.018;2023-03-15T07:14:13;31.90;;;28.27;;
23802;SDS011;12082;51.786;6.018;2023-03-15T07:16:38;40.13;;;29.87;;
23802;SDS011;12082;51.786;6.018;2023-03-15T07:19:04;40.23;;;30.40;;
23802;SDS011;12082;51.786;6.018;2023-03-15T07:21:30;34.63;;;28.83;;
23802;SDS011;12082;51.786;6.018;2023-03-15T07:23:57;33.10;;;29.77;;
23802;SDS011;12082;51.786;6.018;2023-03-15T07:26:22;38.57;;;30.70;;
23802;SDS011;12082;51.786;6.018;2023-03-15T07:28:48;33.80;;;30.33;;
23802;SDS011;12082;51.786;6.018;2023-03-15T07:31:14;33.80;;;30.23;;
23802;SDS011;12082;51.786;6.018;2023-03-15T07:33:41;33.90;;;30.47;;
23802;SDS011;12082;51.786;6.018;2023-03-15T07:36:07;35.90;;;28.33;;
23802;SDS011;12082;51.786;6.018;2023-03-15T07:38:34;30.20;;;27.53;;
23802;SDS011;12082;51.786;6.018;2023-03-15T07:41:00;32.27;;;29.27;;
23802;SDS011;12082;51.786;6.018;2023-03-15T07:43:26;32.40;;;29.77;;
23802;SDS011;12082;51.786;6.018;2023-03-15T07:45:53;33.80;;;31.13;;
23802;SDS011;12082;51.786;6.018;2023-03-15T07:48:19;38.63;;;35.93;;
23802;SDS011;12082;51.786;6.018;2023-03-15T07:50:45;36.00;;;33.53;;
23802;SDS011;12082;51.786;6.018;2023-03-15T07:53:11;38.90;;;35.73;;
23802;SDS011;12082;51.786;6.018;2023-03-15T07:55:37;39.50;;;36.60;;
23802;SDS011;12082;51.786;6.018;2023-03-15T07:58:03;34.07;;;31.67;;
23802;SDS011;12082;51.786;6.018;2023-03-15T08:00:29;33.70;;;31.07;;
23802;SDS011;12082;51.786;6.018;2023-03-15T08:02:56;31.43;;;29.20;;
23802;SDS011;12082;51.786;6.018;2023-03-15T08:05:22;35.43;;;32.80;;
23802;SDS011;12082;51.786;6.018;2023-03-15T08:07:48;33.20;;;30.90;;
23802;SDS011;12082;51.786;6.018;2023-03-15T08:10:15;31.70;;;29.30;;
23802;SDS011;12082;51.786;6.018;2023-03-15T08:12:41;32.83;;;30.20;;
23802;SDS011;12082;51.786;6.018;2023-03-15T08:15:09;31.23;;;29.07;;
23802;SDS011;12082;51.786;6.018;2023-03-15T08:17:35;35.23;;;32.90;;
23802;SDS011;12082;51.786;6.018;2023-03-15T08:20:01;36.03;;;33.60;;
23802;SDS011;12082;51.786;6.018;2023-03-15T08:22:27;34.43;;;32.37;;
23802;SDS011;12082;51.786;6.018;2023-03-15T08:24:54;33.57;;;31.50;;
23802;SDS011;12082;51.786;6.018;2023-03-15T08:27:21;32.10;;;29.90;;
23802;SDS011;12082;51.786;6.018;2023-03-15T08:29:47;31.63;;;29.63;;
23802;SDS011;12082;51.786;6.018;2023-03-15T08:32:13;31.37;;;29.37;;
23802;SDS011;12082;51.786;6.018;2023-03-15T08:34:40;30.70;;;28.80;;
23802;SDS011;12082;51.786;6.018;2023-03-15T08:37:08;34.67;;;32.27;;
23802;SDS011;12082;51.786;6.018;2023-03-15T08:39:35;30.60;;;28.80;;
23802;SDS011;12082;51.786;6.018;2023-03-15T08:42:01;30.07;;;28.17;;
23802;SDS011;12082;51.786;6.018;2023-03-15T08:44:27;34.37;;;32.23;;
23802;SDS011;12082;51.786;6.018;2023-03-15T08:46:53;40.53;;;37.87;;
23802;SDS011;12082;51.786;6.018;2023-03-15T08:49:19;47.57;;;44.77;;
23802;SDS011;12082;51.786;6.018;2023-03-15T08:51:45;51.57;;;48.43;;
23802;SDS011;12082;51.786;6.018;2023-03-15T08:54:11;49.90;;;47.13;;
23802;SDS011;12082;51.786;6.018;2023-03-15T08:56:40;36.23;;;34.13;;
23802;SDS011;12082;51.786;6.018;2023-03-15T08:59:07;25.07;;;23.27;;
23802;SDS011;12082;51.786;6.018;2023-03-15T09:01:33;20.43;;;19.03;;
23802;SDS011;12082;51.786;6.018;2023-03-15T09:03:59;18.00;;;16.83;;
23802;SDS011;12082;51.786;6.018;2023-03-15T09:06:26;18.07;;;16.50;;
23802;SDS011;12082;51.786;6.018;2023-03-15T09:08:52;20.87;;;16.30;;
23802;SDS011;12082;51.786;6.018;2023-03-15T09:11:19;17.20;;;15.80;;
23802;SDS011;12082;51.786;6.018;2023-03-15T09:13:45;17.03;;;15.63;;
23802;SDS011;12082;51.786;6.018;2023-03-15T09:16:11;18.40;;;16.83;;
23802;SDS011;12082;51.786;6.018;2023-03-15T09:18:37;21.70;;;15.13;;
23802;SDS011;12082;51.786;6.018;2023-03-15T09:21:04;17.93;;;16.17;;
23802;SDS011;12082;51.786;6.018;2023-03-15T09:23:31;16.27;;;14.90;;
23802;SDS011;12082;51.786;6.018;2023-03-15T09:25:57;16.13;;;14.90;;
23802;SDS011;12082;51.786;6.018;2023-03-15T09:28:23;19.23;;;16.97;;
23802;SDS011;12082;51.786;6.018;2023-03-15T09:30:49;19.07;;;17.50;;
23802;SDS011;12082;51.786;6.018;2023-03-15T09:33:15;22.50;;;20.73;;
23802;SDS011;12082;51.786;6.018;2023-03-15T09:35:41;23.47;;;21.37;;
23802;SDS011;12082;51.786;6.018;2023-03-15T09:38:08;22.13;;;20.33;;
23802;SDS011;12082;51.786;6.018;2023-03-15T09:40:37;24.17;;;20.23;;
23802;SDS011;12082;51.786;6.018;2023-03-15T09:45:39;21.57;;;19.77;;
23802;SDS011;12082;51.786;6.018;2023-03-15T09:48:08;21.33;;;18.57;;
23802;SDS011;12082;51.786;6.018;2023-03-15T09:50:38;21.23;;;19.30;;
23802;SDS011;12082;51.786;6.018;2023-03-15T09:53:17;22.57;;;19.90;;
23802;SDS011;12082;51.786;6.018;2023-03-15T09:55:45;19.80;;;18.50;;
23802;SDS011;12082;51.786;6.018;2023-03-15T09:58:14;20.50;;;18.93;;
23802;SDS011;12082;51.786;6.018;2023-03-15T10:00:45;20.20;;;18.33;;
23802;SDS011;12082;51.786;6.018;2023-03-15T10:05:46;23.63;;;21.53;;
23802;SDS011;12082;51.786;6.018;2023-03-15T10:08:17;23.40;;;21.60;;
23802;SDS011;12082;51.786;6.018;2023-03-15T10:21:03;21.43;;;20.00;;
23802;SDS011;12082;51.786;6.018;2023-03-15T10:23:34;23.00;;;21.10;;
23802;SDS011;12082;51.786;6.018;2023-03-15T10:26:02;22.17;;;20.57;;
23802;SDS011;12082;51.786;6.018;2023-03-15T10:28:30;22.30;;;20.80;;
23802;SDS011;12082;51.786;6.018;2023-03-15T10:30:57;21.70;;;20.13;;
23802;SDS011;12082;51.786;6.018;2023-03-15T10:33:29;23.37;;;21.73;;
23802;SDS011;12082;51.786;6.018;2023-03-15T10:35:58;22.93;;;21.43;;
23802;SDS011;12082;51.786;6.018;2023-03-15T10:38:25;22.40;;;20.73;;
23802;SDS011;12082;51.786;6.018;2023-03-15T10:40:53;22.40;;;20.80;;
23802;SDS011;12082;51.786;6.018;2023-03-15T10:43:37;21.90;;;20.53;;
23802;SDS011;12082;51.786;6.018;2023-03-15T10:48:31;21.57;;;20.17;;
23802;SDS011;12082;51.786;6.018;2023-03-15T10:51:00;21.80;;;20.27;;
23802;SDS011;12082;51.786;6.018;2023-03-15T10:53:27;21.27;;;19.93;;
23802;SDS011;12082;51.786;6.018;2023-03-15T10:56:00;22.63;;;20.80;;
23802;SDS011;12082;51.786;6.018;2023-03-15T10:58:28;22.30;;;20.60;;
23802;SDS011;12082;51.786;6.018;2023-03-15T11:01:01;21.70;;;20.43;;
23802;SDS011;12082;51.786;6.018;2023-03-15T11:03:27;22.03;;;20.30;;
23802;SDS011;12082;51.786;6.018;2023-03-15T11:05:56;22.30;;;20.80;;
23802;SDS011;12082;51.786;6.018;2023-03-15T11:08:41;22.07;;;20.67;;
23802;SDS011;12082;51.786;6.018;2023-03-15T11:11:07;20.73;;;19.53;;
23802;SDS011;12082;51.786;6.018;2023-03-15T11:13:34;21.30;;;20.00;;
23802;SDS011;12082;51.786;6.018;2023-03-15T11:16:02;20.47;;;18.80;;
23802;SDS011;12082;51.786;6.018;2023-03-15T11:18:35;20.80;;;19.10;;
23802;SDS011;12082;51.786;6.018;2023-03-15T11:21:03;20.63;;;18.93;;
23802;SDS011;12082;51.786;6.018;2023-03-15T11:23:40;21.87;;;20.30;;
23802;SDS011;12082;51.786;6.018;2023-03-15T11:26:26;23.07;;;21.30;;
23802;SDS011;12082;51.786;6.018;2023-03-15T11:28:54;21.87;;;20.30;;
23802;SDS011;12082;51.786;6.018;2023-03-15T11:31:22;22.47;;;20.57;;
23802;SDS011;12082;51.786;6.018;2023-03-15T11:36:21;21.43;;;19.90;;
23802;SDS011;12082;51.786;6.018;2023-03-15T11:38:47;22.70;;;21.07;;
23802;SDS011;12082;51.786;6.018;2023-03-15T11:49:00;20.60;;;19.60;;
23802;SDS011;12082;51.786;6.018;2023-03-15T11:51:28;21.70;;;20.50;;
23802;SDS011;12082;51.786;6.018;2023-03-15T11:54:09;22.33;;;20.50;;
23802;SDS011;12082;51.786;6.018;2023-03-15T11:59:14;21.33;;;19.80;;
23802;SDS011;12082;51.786;6.018;2023-03-15T12:01:41;21.23;;;19.90;;
23802;SDS011;12082;51.786;6.018;2023-03-15T12:04:42;20.70;;;19.30;;
23802;SDS011;12082;51.786;6.018;2023-03-15T12:09:51;19.10;;;17.90;;
23802;SDS011;12082;51.786;6.018;2023-03-15T12:20:06;16.47;;;15.50;;
23802;SDS011;12082;51.786;6.018;2023-03-15T12:22:33;17.10;;;15.60;;
23802;SDS011;12082;51.786;6.018;2023-03-15T12:25:07;16.63;;;15.57;;
23802;SDS011;12082;51.786;6.018;2023-03-15T12:27:35;16.17;;;15.23;;
23802;SDS011;12082;51.786;6.018;2023-03-15T12:30:02;16.57;;;15.43;;
23802;SDS011;12082;51.786;6.018;2023-03-15T12:32:28;16.50;;;15.40;;
23802;SDS011;12082;51.786;6.018;2023-03-15T12:34:55;17.23;;;15.63;;
23802;SDS011;12082;51.786;6.018;2023-03-15T12:37:23;17.17;;;16.10;;
23802;SDS011;12082;51.786;6.018;2023-03-15T12:39:59;17.47;;;16.00;;
23802;SDS011;12082;51.786;6.018;2023-03-15T12:47:45;16.93;;;15.93;;
23802;SDS011;12082;51.786;6.018;2023-03-15T12:52:57;15.30;;;14.27;;
23802;SDS011;12082;51.786;6.018;2023-03-15T12:55:26;15.60;;;14.53;;
23802;SDS011;12082;51.786;6.018;2023-03-15T12:57:53;16.90;;;15.83;;
23802;SDS011;12082;51.786;6.018;2023-03-15T13:00:22;16.87;;;15.43;;
23802;SDS011;12082;51.786;6.018;2023-03-15T13:02:52;14.80;;;13.90;;
23802;SDS011;12082;51.786;6.018;2023-03-15T13:07:51;14.70;;;13.60;;
23802;SDS011;12082;51.786;6.018;2023-03-15T13:11:00;15.13;;;14.03;;
23802;SDS011;12082;51.786;6.018;2023-03-15T13:13:30;15.30;;;14.30;;
23802;SDS011;12082;51.786;6.018;2023-03-15T13:18:26;15.33;;;14.50;;
23802;SDS011;12082;51.786;6.018;2023-03-15T13:23:39;15.37;;;14.10;;
23802;SDS011;12082;51.786;6.018;2023-03-15T13:29:15;15.60;;;13.93;;
23802;SDS011;12082;51.786;6.018;2023-03-15T13:31:34;15.57;;;13.93;;
23802;SDS011;12082;51.786;6.018;2023-03-15T13:34:09;14.50;;;13.10;;
23802;SDS011;12082;51.786;6.018;2023-03-15T13:36:40;15.00;;;13.80;;
23802;SDS011;12082;51.786;6.018;2023-03-15T13:39:15;16.00;;;14.47;;
23802;SDS011;12082;51.786;6.018;2023-03-15T13:41:43;15.40;;;14.17;;
23802;SDS011;12082;51.786;6.018;2023-03-15T13:44:19;14.53;;;13.73;;
23802;SDS011;12082;51.786;6.018;2023-03-15T13:46:46;14.77;;;13.77;;
23802;SDS011;12082;51.786;6.018;2023-03-15T13:49:12;13.90;;;13.10;;
23802;SDS011;12082;51.786;6.018;2023-03-15T13:51:38;15.23;;;13.97;;
23802;SDS011;12082;51.786;6.018;2023-03-15T13:56:40;14.43;;;13.17;;
23802;SDS011;12082;51.786;6.018;2023-03-15T13:59:08;14.77;;;13.47;;
23802;SDS011;12082;51.786;6.018;2023-03-15T14:01:36;14.07;;;13.00;;
23802;SDS011;12082;51.786;6.018;2023-03-15T14:04:14;14.60;;;13.50;;
23802;SDS011;12082;51.786;6.018;2023-03-15T14:06:41;14.57;;;13.57;;
23802;SDS011;12082;51.786;6.018;2023-03-15T14:09:10;14.10;;;13.10;;
23802;SDS011;12082;51.786;6.018;2023-03-15T14:11:41;13.03;;;12.10;;
23802;SDS011;12082;51.786;6.018;2023-03-15T14:14:22;14.07;;;12.90;;
23802;SDS011;12082;51.786;6.018;2023-03-15T14:16:49;14.27;;;13.43;;
23802;SDS011;12082;51.786;6.018;2023-03-15T14:19:17;14.30;;;13.17;;
23802;SDS011;12082;51.786;6.018;2023-03-15T14:21:44;13.27;;;12.47;;
23802;SDS011;12082;51.786;6.018;2023-03-15T14:24:23;14.00;;;12.80;;
23802;SDS011;12082;51.786;6.018;2023-03-15T14:26:52;13.07;;;12.03;;
23802;SDS011;12082;51.786;6.018;2023-03-15T14:29:26;13.00;;;12.10;;
23802;SDS011;12082;51.786;6.018;2023-03-15T14:31:52;13.10;;;12.20;;
23802;SDS011;12082;51.786;6.018;2023-03-15T14:34:32;13.10;;;12.30;;
23802;SDS011;12082;51.786;6.018;2023-03-15T14:36:59;13.13;;;12.27;;
23802;SDS011;12082;51.786;6.018;2023-03-15T14:39:46;12.97;;;12.27;;
23802;SDS011;12082;51.786;6.018;2023-03-15T14:42:12;12.67;;;11.87;;
23802;SDS011;12082;51.786;6.018;2023-03-15T14:44:37;12.93;;;11.70;;
23802;SDS011;12082;51.786;6.018;2023-03-15T14:47:13;12.77;;;12.13;;
23802;SDS011;12082;51.786;6.018;2023-03-15T14:49:40;13.37;;;11.97;;
23802;SDS011;12082;51.786;6.018;2023-03-15T14:52:06;12.57;;;11.80;;
23802;SDS011;12082;51.786;6.018;2023-03-15T14:54:32;12.60;;;11.80;;
23802;SDS011;12082;51.786;6.018;2023-03-15T14:56:58;12.03;;;11.40;;
23802;SDS011;12082;51.786;6.018;2023-03-15T14:59:24;13.00;;;11.90;;
23802;SDS011;12082;51.786;6.018;2023-03-15T15:01:54;12.53;;;11.60;;
23802;SDS011;12082;51.786;6.018;2023-03-15T15:04:21;12.43;;;11.63;;
23802;SDS011;12082;51.786;6.018;2023-03-15T15:06:47;12.30;;;11.30;;
23802;SDS011;12082;51.786;6.018;2023-03-15T15:09:18;12.90;;;12.13;;
23802;SDS011;12082;51.786;6.018;2023-03-15T15:11:45;12.10;;;11.50;;
23802;SDS011;12082;51.786;6.018;2023-03-15T15:14:12;11.80;;;11.10;;
23802;SDS011;12082;51.786;6.018;2023-03-15T15:16:38;12.27;;;11.37;;
23802;SDS011;12082;51.786;6.018;2023-03-15T15:19:04;12.03;;;11.23;;
23802;SDS011;12082;51.786;6.018;2023-03-15T15:21:30;11.97;;;11.27;;
23802;SDS011;12082;51.786;6.018;2023-03-15T15:23:56;12.43;;;11.53;;
23802;SDS011;12082;51.786;6.018;2023-03-15T15:26:23;12.37;;;11.40;;
23802;SDS011;12082;51.786;6.018;2023-03-15T15:28:52;11.50;;;11.00;;
23802;SDS011;12082;51.786;6.018;2023-03-15T15:31:19;12.33;;;11.40;;
23802;SDS011;12082;51.786;6.018;2023-03-15T15:33:52;12.63;;;11.83;;